createdAt,value
2022-08-16T00:04:18.276Z,99.90
2022-08-16T00:09:42.260Z,99.90
2022-08-16T00:15:18.369Z,99.90
2022-08-16T00:20:42.558Z,99.90
2022-08-16T00:26:34.562Z,99.90
2022-08-16T00:32:00.923Z,99.90
2022-08-16T00:37:57.727Z,99.90
2022-08-16T00:43:19.028Z,99.90
2022-08-16T00:48:45.480Z,99.90
2022-08-16T00:54:08.503Z,99.90
2022-08-16T00:59:50.723Z,99.90
2022-08-16T01:05:24.004Z,99.90
2022-08-16T01:10:47.960Z,99.90
2022-08-16T01:16:19.965Z,99.90
2022-08-16T01:22:47.632Z,99.90
2022-08-16T01:27:50.959Z,99.90
2022-08-16T01:33:15.535Z,99.90
2022-08-16T01:38:53.178Z,99.90
2022-08-16T01:44:20.643Z,99.90
2022-08-16T01:50:41.151Z,99.90
2022-08-16T01:55:26.664Z,99.90
2022-08-16T02:00:58.057Z,99.90
2022-08-16T02:06:34.154Z,99.90
2022-08-16T02:11:59.140Z,99.90
2022-08-16T02:17:42.557Z,99.90
2022-08-16T02:23:09.617Z,99.90
2022-08-16T02:28:32.806Z,99.90
2022-08-16T02:33:56.807Z,99.90
2022-08-16T02:39:27.479Z,99.90
2022-08-16T02:44:52.444Z,99.90
2022-08-16T02:50:54.190Z,99.90
2022-08-16T02:55:57.114Z,99.90
2022-08-16T03:01:24.663Z,99.90
2022-08-16T03:06:57.622Z,99.90
2022-08-16T03:12:55.757Z,99.90
2022-08-16T03:18:40.219Z,99.90
2022-08-16T03:24:03.703Z,99.90
2022-08-16T03:29:30.027Z,99.90
2022-08-16T03:34:54.042Z,99.90
2022-08-16T03:40:31.601Z,99.90
2022-08-16T03:45:57.458Z,99.90
2022-08-16T03:51:25.464Z,99.90
2022-08-16T03:56:56.761Z,99.90
2022-08-16T04:02:22.491Z,99.90
2022-08-16T04:07:54.352Z,99.90
2022-08-16T04:13:20.379Z,99.90
2022-08-16T04:18:43.642Z,99.90
2022-08-16T04:24:08.826Z,99.90
2022-08-16T04:29:43.912Z,99.90
2022-08-16T04:35:16.187Z,99.90
2022-08-16T04:40:39.475Z,99.90
2022-08-16T04:46:03.232Z,99.90
2022-08-16T04:51:36.117Z,99.90
2022-08-16T04:56:58.851Z,99.90
2022-08-16T05:02:42.090Z,99.90
2022-08-16T05:08:28.910Z,99.90
2022-08-16T05:13:51.959Z,99.90
2022-08-16T05:19:19.073Z,99.90
2022-08-16T05:25:09.439Z,99.90
2022-08-16T05:30:37.160Z,99.90
2022-08-16T05:36:14.225Z,99.90
2022-08-16T05:41:45.990Z,99.90
2022-08-16T05:47:09.376Z,99.90
2022-08-16T05:52:38.028Z,99.90
2022-08-16T05:58:07.188Z,99.90
2022-08-16T06:03:31.455Z,99.90
2022-08-16T06:08:57.833Z,99.90
2022-08-16T06:14:22.776Z,99.90
2022-08-16T06:19:51.641Z,99.90
2022-08-16T06:25:15.159Z,99.90
2022-08-16T06:30:43.925Z,99.90
2022-08-16T06:36:09.092Z,99.90
2022-08-16T06:41:39.624Z,99.90
2022-08-16T06:47:06.076Z,99.90
2022-08-16T06:52:59.769Z,99.90
2022-08-16T06:58:22.818Z,99.90
2022-08-16T07:03:59.932Z,99.90
2022-08-16T07:09:29.624Z,99.90
2022-08-16T07:14:52.095Z,99.90
2022-08-16T07:20:34.907Z,99.90
2022-08-16T07:25:56.841Z,99.90
2022-08-16T07:31:21.888Z,99.90
2022-08-16T07:36:45.672Z,99.90
2022-08-16T07:42:34.881Z,99.90
2022-08-16T07:47:57.892Z,99.90
2022-08-16T07:53:21.788Z,99.90
2022-08-16T07:58:46.179Z,99.90
2022-08-16T08:04:13.370Z,99.90
2022-08-16T08:09:43.436Z,99.90
2022-08-16T08:15:10.281Z,99.90
2022-08-16T08:20:34.674Z,99.90
2022-08-16T08:26:00.300Z,99.90
2022-08-16T08:31:25.324Z,99.90
2022-08-16T08:36:48.844Z,99.90
2022-08-16T08:42:37.052Z,99.90
2022-08-16T08:48:00.336Z,99.90
2022-08-16T08:53:30.712Z,99.90
2022-08-16T08:58:58.938Z,99.90
2022-08-16T09:04:32.933Z,99.90
2022-08-16T09:10:06.289Z,99.90
2022-08-16T09:15:32.841Z,99.90
2022-08-16T09:20:59.802Z,99.90
2022-08-16T09:26:45.036Z,99.90
2022-08-16T09:32:07.618Z,99.90
2022-08-16T09:37:36.517Z,99.90
2022-08-16T09:42:59.838Z,99.90
2022-08-16T09:48:44.379Z,99.90
2022-08-16T09:54:06.005Z,99.90
2022-08-16T09:59:30.672Z,99.90
2022-08-16T10:04:55.011Z,99.90
2022-08-16T10:10:19.203Z,99.90
2022-08-16T10:15:59.888Z,99.90
2022-08-16T10:21:22.715Z,99.90
2022-08-16T10:27:16.172Z,99.90
2022-08-16T10:32:30.482Z,99.90
2022-08-16T10:37:53.112Z,99.90
2022-08-16T10:43:18.456Z,99.90
2022-08-16T10:48:47.144Z,99.90
2022-08-16T10:54:29.609Z,99.90
2022-08-16T10:59:57.837Z,99.90
2022-08-16T11:05:20.735Z,99.90
2022-08-16T11:11:06.829Z,99.90
2022-08-16T11:17:02.520Z,99.90
2022-08-16T11:22:39.169Z,99.90
2022-08-16T11:27:55.496Z,99.90
2022-08-16T11:33:18.660Z,99.90
2022-08-16T11:39:22.787Z,99.90
2022-08-16T11:44:56.055Z,99.90
2022-08-16T11:50:19.248Z,98.50
2022-08-16T11:55:44.009Z,90.50
2022-08-16T12:01:07.299Z,86.30
2022-08-16T12:06:33.631Z,89.40
2022-08-16T12:11:56.809Z,93.10
2022-08-16T12:17:19.531Z,95.90
2022-08-16T12:22:44.614Z,97.40
2022-08-16T12:28:08.259Z,96.10
2022-08-16T12:33:32.287Z,97.00
2022-08-16T12:39:07.059Z,99.30
2022-08-16T12:44:31.294Z,99.90
2022-08-16T12:49:54.106Z,99.90
2022-08-16T12:55:16.945Z,99.90
2022-08-16T13:00:39.162Z,99.90
2022-08-16T13:06:02.384Z,99.90
2022-08-16T13:11:32.518Z,99.90
2022-08-16T13:16:54.776Z,99.80
2022-08-16T13:22:18.801Z,99.80
2022-08-16T13:28:14.889Z,99.90
2022-08-16T13:33:30.531Z,99.90
2022-08-16T13:38:52.910Z,99.90
2022-08-16T13:44:18.996Z,99.90
2022-08-16T13:49:43.810Z,99.90
2022-08-16T13:55:06.472Z,99.90
2022-08-16T14:00:41.008Z,99.90
2022-08-16T14:06:03.291Z,99.90
2022-08-16T14:11:25.847Z,99.90
2022-08-16T14:16:48.100Z,99.90
2022-08-16T14:22:31.477Z,99.90
2022-08-16T14:27:59.825Z,99.90
2022-08-16T14:33:21.995Z,99.90
2022-08-16T14:38:44.127Z,99.90
2022-08-16T14:44:09.340Z,99.90
2022-08-16T14:49:32.477Z,99.90
2022-08-16T14:54:55.043Z,99.90
2022-08-16T15:00:18.169Z,99.90
2022-08-16T15:05:41.981Z,99.90
2022-08-16T15:11:05.375Z,99.90
2022-08-16T15:16:29.076Z,99.90
2022-08-16T15:21:53.952Z,99.90
2022-08-16T15:27:16.363Z,99.90
2022-08-16T15:32:38.913Z,99.90
2022-08-16T15:38:01.487Z,99.90
2022-08-16T15:43:39.054Z,99.90
2022-08-16T15:49:03.426Z,99.90
2022-08-16T15:54:30.855Z,99.90
2022-08-16T16:00:04.279Z,99.90
2022-08-16T16:05:36.044Z,99.90
2022-08-16T16:11:04.693Z,99.90
2022-08-16T16:16:28.334Z,99.90
2022-08-16T16:21:54.022Z,99.90
2022-08-16T16:27:16.696Z,99.90
2022-08-16T16:32:38.871Z,99.90
2022-08-16T16:38:07.814Z,99.90
2022-08-16T16:43:31.961Z,99.90
2022-08-16T16:48:56.392Z,99.90
2022-08-16T16:54:27.856Z,99.90
2022-08-16T16:59:55.848Z,99.90
2022-08-16T17:05:18.493Z,99.90
2022-08-16T17:10:46.450Z,99.90
2022-08-16T17:16:18.398Z,99.90
2022-08-16T17:21:42.067Z,99.90
2022-08-16T17:27:04.467Z,99.90
2022-08-16T17:32:44.389Z,99.90
2022-08-16T17:38:11.182Z,99.90
2022-08-16T17:43:44.133Z,99.90
2022-08-16T17:49:06.985Z,99.90
2022-08-16T17:54:30.624Z,99.90
2022-08-16T17:59:53.200Z,99.90
2022-08-16T18:05:16.251Z,99.90
2022-08-16T18:10:39.023Z,99.90
2022-08-16T18:16:01.537Z,99.90
2022-08-16T18:21:42.577Z,99.90
2022-08-16T18:27:26.512Z,99.90
2022-08-16T18:32:51.071Z,99.90
2022-08-16T18:38:13.642Z,99.90
2022-08-16T18:44:22.401Z,99.90
2022-08-16T18:49:18.619Z,99.90
2022-08-16T18:55:01.993Z,99.90
2022-08-16T19:00:26.778Z,99.90
2022-08-16T19:05:54.470Z,99.90
2022-08-16T19:11:21.630Z,99.90
2022-08-16T19:16:44.704Z,99.90
2022-08-16T19:22:06.876Z,99.90
2022-08-16T19:27:32.575Z,99.90
2022-08-16T19:32:56.012Z,99.90
2022-08-16T19:38:18.180Z,99.90
2022-08-16T19:43:40.332Z,99.90
2022-08-16T19:49:03.403Z,99.90
2022-08-16T19:54:25.548Z,99.90
2022-08-16T19:59:48.568Z,99.90
2022-08-16T20:05:10.693Z,99.90
2022-08-16T20:10:33.034Z,99.90
2022-08-16T20:15:56.855Z,99.90
2022-08-16T20:21:19.504Z,99.90
2022-08-16T20:26:41.922Z,99.90
2022-08-16T20:32:06.591Z,99.90
2022-08-16T20:37:28.803Z,99.90
2022-08-16T20:43:01.169Z,99.90
2022-08-16T20:48:23.446Z,99.90
2022-08-16T20:53:45.695Z,99.90
2022-08-16T20:59:07.824Z,99.90
2022-08-16T21:04:30.334Z,99.90
2022-08-16T21:09:52.644Z,99.90
2022-08-16T21:15:16.207Z,99.90
2022-08-16T21:20:38.404Z,99.90
2022-08-16T21:26:00.592Z,99.90
2022-08-16T21:31:26.285Z,99.90
2022-08-16T21:36:49.809Z,99.90
2022-08-16T21:42:17.997Z,99.90
2022-08-16T21:47:40.127Z,99.90
2022-08-16T21:53:15.227Z,99.90
2022-08-16T21:58:37.744Z,99.90
2022-08-16T22:04:35.870Z,99.90
2022-08-16T22:09:42.577Z,99.90
2022-08-16T22:15:05.852Z,99.90
2022-08-16T22:20:29.298Z,99.90
2022-08-16T22:25:53.811Z,99.90
2022-08-16T22:31:17.770Z,99.90
2022-08-16T22:36:40.095Z,99.90
2022-08-16T22:42:09.303Z,99.90
2022-08-16T22:47:31.449Z,99.90
2022-08-16T22:52:56.402Z,99.90
2022-08-16T22:58:19.647Z,99.90
2022-08-16T23:03:42.059Z,99.90
2022-08-16T23:09:04.388Z,99.90
2022-08-16T23:14:26.496Z,99.90
2022-08-16T23:19:48.621Z,99.90
2022-08-16T23:25:13.672Z,99.90
2022-08-16T23:30:38.893Z,99.90
2022-08-16T23:36:03.914Z,99.90
2022-08-16T23:41:26.127Z,99.90
2022-08-16T23:46:49.437Z,99.90
2022-08-16T23:52:11.820Z,99.90
2022-08-16T23:57:34.068Z,99.90
